Messwerte Wetterstation Stötten 734m (Baden-Württemberg)

Aktuelle Messwerte

Temperatur und Niederschlag
Taupunkt, Temperatur und Luftfeuchtigkeit

Anzeige

Windrichtung und Windböen
Luftdruck
Datum Temperatur °C Niederschlag l/m² (10 min) Taupunkt °C Rel. Feuchte % Windböen km/h Windrichtung Luftdruck (hPa)
20.04 - 07:20 Uhr - 0.0 - - 8 260 -
20.04 - 07:10 Uhr - 0.0 - - 8 260 -
20.04 - 07:00 Uhr - 0.0 - - 6 300 -
20.04 - 06:50 Uhr 3.9 0.0 1.1 82 6 290 932
20.04 - 06:40 Uhr 3.9 0.0 1.2 83 5 340 932
20.04 - 06:30 Uhr 3.7 0.0 1.4 85 5 330 932
20.04 - 06:20 Uhr 3.8 0.0 1.0 82 5 330 932
20.04 - 06:10 Uhr 3.8 0.0 0.7 80 5 290 932
20.04 - 06:00 Uhr 3.7 0.0 0.4 79 8 300 932
20.04 - 05:50 Uhr 3.8 0.0 0.7 80 9 320 932
20.04 - 05:40 Uhr 3.9 0.0 0.8 80 9 320 932
20.04 - 05:30 Uhr 4.0 0.0 0.7 79 8 320 932
20.04 - 05:20 Uhr 3.9 0.0 0.3 77 7 310 932
20.04 - 05:10 Uhr 4.1 0.0 0.3 76 6 310 933
20.04 - 05:00 Uhr 4.2 0.0 0.4 76 8 280 933
20.04 - 04:50 Uhr 4.0 0.0 0.2 76 8 290 933
20.04 - 04:40 Uhr 4.3 0.0 0.4 76 7 280 933
20.04 - 04:30 Uhr 4.1 0.0 0.4 77 8 310 933
20.04 - 04:20 Uhr 4.3 0.0 0.6 77 9 310 933
20.04 - 04:10 Uhr 4.4 0.0 0.8 77 9 310 933
20.04 - 04:00 Uhr 4.6 0.0 0.9 77 8 310 933
20.04 - 03:50 Uhr 4.6 0.0 0.9 77 8 300 933
20.04 - 03:40 Uhr 4.7 0.0 1.1 77 7 280 933
20.04 - 03:30 Uhr 4.7 0.0 1.2 78 5 270 933
20.04 - 03:20 Uhr 4.7 0.0 1.0 77 6 280 933
20.04 - 03:10 Uhr 4.7 0.0 0.9 76 6 270 933
20.04 - 03:00 Uhr 4.7 0.0 0.8 76 8 290 933
20.04 - 02:50 Uhr 4.7 0.0 0.7 76 8 300 933
20.04 - 02:40 Uhr 5.1 0.0 1.0 75 6 300 933
20.04 - 02:30 Uhr 5.1 0.0 1.1 75 6 290 933
20.04 - 02:20 Uhr 5.3 0.0 1.2 75 5 310 933
20.04 - 02:10 Uhr 5.1 0.0 0.9 74 5 220 934
20.04 - 02:00 Uhr 5.2 0.0 1.0 74 6 200 934
20.04 - 01:50 Uhr 5.0 0.0 1.1 76 7 210 934
20.04 - 01:40 Uhr 4.9 0.0 1.2 77 6 200 934
20.04 - 01:30 Uhr 5.1 0.0 1.3 76 5 230 934
20.04 - 01:20 Uhr 5.1 0.0 1.3 77 5 10 934
20.04 - 01:10 Uhr 5.1 0.0 1.4 77 9 10 934
20.04 - 01:00 Uhr 5.0 0.0 1.3 77 12 10 934
20.04 - 00:50 Uhr 5.0 0.0 1.2 77 15 360 934
20.04 - 00:40 Uhr 4.8 0.0 1.1 77 15 350 934
20.04 - 00:30 Uhr 5.0 0.0 1.1 76 13 350 934
20.04 - 00:20 Uhr 5.4 0.0 1.1 74 14 360 934
20.04 - 00:10 Uhr 5.1 0.0 0.8 74 12 350 934
20.04 - 00:00 Uhr 5.6 0.0 0.8 71 12 330 934
19.04 - 23:50 Uhr 5.7 0.0 0.6 70 14 310 934
19.04 - 23:40 Uhr 5.6 0.0 0.2 68 15 320 934
19.04 - 23:30 Uhr 5.7 0.0 -0.2 66 12 280 934
19.04 - 23:20 Uhr 6.1 0.0 -0.2 64 10 300 934
19.04 - 23:10 Uhr 6.3 0.0 -0.2 63 12 290 934
19.04 - 23:00 Uhr 6.1 0.0 -0.3 64 12 290 934
19.04 - 22:50 Uhr 6.5 0.0 -0.1 63 12 260 934
19.04 - 22:40 Uhr 6.3 0.0 0.0 64 10 270 934
19.04 - 22:30 Uhr 6.4 0.0 0.0 64 11 260 934
19.04 - 22:20 Uhr 6.5 0.0 0.1 64 12 260 934
19.04 - 22:10 Uhr 6.3 0.0 0.4 66 12 280 934
19.04 - 22:00 Uhr 6.7 0.0 0.8 66 11 250 934
19.04 - 21:50 Uhr 6.7 0.0 0.8 66 9 260 934
19.04 - 21:40 Uhr 6.5 0.0 0.8 67 11 300 934
19.04 - 21:30 Uhr 6.4 0.0 0.9 68 11 310 934
19.04 - 21:20 Uhr 6.4 0.0 0.9 68 12 320 934
19.04 - 21:10 Uhr 6.4 0.0 0.9 68 12 320 934
19.04 - 21:00 Uhr 6.1 0.0 0.9 69 12 330 934
19.04 - 20:50 Uhr 6.3 0.0 0.9 69 13 330 934
19.04 - 20:40 Uhr 6.3 0.0 1.0 69 17 330 934
19.04 - 20:30 Uhr 6.6 0.0 1.0 68 18 330 934
19.04 - 20:20 Uhr 7.1 0.0 1.1 66 18 330 934
19.04 - 20:10 Uhr 7.5 0.0 1.0 64 27 320 934
19.04 - 20:00 Uhr 8.3 0.0 0.9 60 27 310 934
19.04 - 19:50 Uhr 8.2 0.0 1.1 61 30 320 934
19.04 - 19:40 Uhr 8.6 0.0 0.6 57 31 330 934
19.04 - 19:30 Uhr 8.7 0.0 0.3 56 36 310 934
19.04 - 19:20 Uhr 8.9 0.0 1.0 58 31 310 934
19.04 - 19:10 Uhr 9.3 0.0 1.4 58 33 330 934
19.04 - 19:00 Uhr 9.7 0.0 2.1 59 31 300 934
19.04 - 18:50 Uhr 9.7 0.0 1.4 56 34 290 934
19.04 - 18:40 Uhr 10.0 0.0 0.8 53 36 300 934
19.04 - 18:30 Uhr 10.3 0.0 2.3 58 35 290 934
19.04 - 18:20 Uhr 10.2 0.0 0.9 53 38 290 934
19.04 - 18:10 Uhr 10.6 0.0 1.9 55 31 260 934
19.04 - 18:00 Uhr 10.6 0.0 2.4 57 31 280 934
19.04 - 17:50 Uhr 10.3 0.0 3.0 61 37 340 934
19.04 - 17:40 Uhr 10.9 0.0 3.5 60 30 320 934
19.04 - 17:30 Uhr 9.6 0.0 2.0 59 38 310 934
19.04 - 17:20 Uhr 9.7 0.0 3.0 63 37 310 934
19.04 - 17:10 Uhr 9.6 0.0 3.0 63 39 310 934
19.04 - 17:00 Uhr 9.4 0.0 2.4 62 45 310 934
19.04 - 16:50 Uhr 10.2 0.0 2.5 59 45 310 933
19.04 - 16:40 Uhr 10.6 0.0 2.8 59 48 330 933
19.04 - 16:30 Uhr 10.2 0.0 3.2 62 51 290 933
19.04 - 16:20 Uhr 10.6 0.0 5.1 69 36 290 933
19.04 - 16:10 Uhr 9.2 0.0 4.7 74 46 320 933
19.04 - 16:00 Uhr 9.9 0.0 4.9 71 44 320 933
19.04 - 15:50 Uhr 10.9 0.0 5.5 69 46 290 933
19.04 - 15:40 Uhr 10.2 0.0 5.2 71 49 320 933
19.04 - 15:30 Uhr 10.3 0.0 5.2 71 54 310 933
19.04 - 15:20 Uhr 9.7 0.0 5.5 75 50 320 933
19.04 - 15:10 Uhr 9.6 0.0 5.7 77 40 310 933
19.04 - 15:00 Uhr 9.1 0.0 5.9 80 51 310 933
19.04 - 14:50 Uhr 9.1 0.0 5.9 80 41 300 933
19.04 - 14:40 Uhr 9.1 0.0 5.9 80 44 310 933
19.04 - 14:30 Uhr 9.1 0.0 6.4 83 43 320 933
19.04 - 14:20 Uhr 8.9 0.0 6.3 84 44 310 933
19.04 - 14:10 Uhr 9.2 0.0 7.5 89 31 300 933
19.04 - 14:00 Uhr 9.7 0.0 7.6 87 31 300 933
19.04 - 13:50 Uhr 9.8 0.0 8.5 92 30 300 933
19.04 - 13:40 Uhr 8.8 0.0 7.7 93 36 290 933
19.04 - 13:30 Uhr 8.5 0.0 7.6 94 35 300 933
19.04 - 13:20 Uhr 8.5 0.0 7.8 95 32 300 933
19.04 - 13:10 Uhr 8.3 0.0 7.3 94 39 290 933
19.04 - 13:00 Uhr 8.6 0.0 7.8 95 35 320 933
19.04 - 12:50 Uhr 8.7 0.0 7.8 94 33 270 933
19.04 - 12:40 Uhr 9.1 0.0 7.9 92 32 290 933
19.04 - 12:30 Uhr 9.7 0.0 8.3 91 29 310 933
19.04 - 12:20 Uhr 9.6 0.0 8.4 92 30 300 933
19.04 - 12:10 Uhr 9.2 0.0 7.7 90 28 290 933
19.04 - 12:00 Uhr 9.6 0.1 7.9 89 25 290 933
19.04 - 11:50 Uhr 9.9 0.0 7.3 84 31 290 933
19.04 - 11:40 Uhr 11.0 0.0 8.7 86 30 280 933
19.04 - 11:30 Uhr 10.0 0.0 8.2 89 27 300 933
19.04 - 11:20 Uhr 10.1 0.0 8.0 87 28 300 933
19.04 - 11:10 Uhr 10.6 0.0 8.4 86 30 300 933
19.04 - 11:00 Uhr 10.9 0.0 9.6 92 27 280 933
19.04 - 10:50 Uhr 9.5 0.0 8.3 93 25 290 933
19.04 - 10:40 Uhr 9.7 0.0 8.5 92 24 280 933
19.04 - 10:30 Uhr 9.4 0.0 8.6 95 29 280 932
19.04 - 10:20 Uhr 9.0 0.0 8.2 95 29 280 932
19.04 - 10:10 Uhr 9.2 0.0 8.0 92 34 310 932
19.04 - 10:00 Uhr 9.0 0.0 8.2 95 45 290 932
19.04 - 09:50 Uhr 9.3 0.0 8.1 92 42 300 932
19.04 - 09:40 Uhr 9.6 0.0 8.5 93 37 280 932
19.04 - 09:30 Uhr 9.4 0.0 8.4 93 41 300 932
19.04 - 09:20 Uhr 9.1 0.0 8.3 94 45 280 932
19.04 - 09:10 Uhr 9.6 0.0 8.1 90 41 280 932
19.04 - 09:00 Uhr 10.3 0.0 7.6 83 33 280 931
19.04 - 08:50 Uhr 11.4 0.0 8.7 84 25 280 931
19.04 - 08:40 Uhr 11.4 0.0 8.1 80 20 270 931
19.04 - 08:30 Uhr 11.4 0.0 8.4 82 19 260 931
19.04 - 08:20 Uhr 11.4 0.0 8.3 81 25 250 931
19.04 - 08:10 Uhr 10.7 0.0 8.1 84 16 260 931
19.04 - 08:00 Uhr 10.2 0.0 7.7 85 15 260 931
19.04 - 07:50 Uhr 10.1 0.3 7.9 86 22 230 931
19.04 - 07:40 Uhr 10.1 0.7 8.0 87 23 280 931
19.04 - 07:30 Uhr 10.3 0.0 7.4 82 20 270 931

Daten: Quelle DWD